sensor_id;sensor_type;location;lat;lon;timestamp;P1;durP1;ratioP1;P2;durP2;ratioP2
6985;SDS011;3533;51.246;6.850;2023-06-24T00:00:55;2.23;;;2.13;;
6985;SDS011;3533;51.246;6.850;2023-06-24T00:03:21;2.37;;;2.27;;
6985;SDS011;3533;51.246;6.850;2023-06-24T00:05:46;2.67;;;2.57;;
6985;SDS011;3533;51.246;6.850;2023-06-24T00:08:14;2.40;;;2.30;;
6985;SDS011;3533;51.246;6.850;2023-06-24T00:10:44;2.50;;;2.40;;
6985;SDS011;3533;51.246;6.850;2023-06-24T00:13:13;2.60;;;2.50;;
6985;SDS011;3533;51.246;6.850;2023-06-24T00:15:39;2.83;;;2.63;;
6985;SDS011;3533;51.246;6.850;2023-06-24T00:18:11;3.10;;;3.00;;
6985;SDS011;3533;51.246;6.850;2023-06-24T00:20:37;2.53;;;2.33;;
6985;SDS011;3533;51.246;6.850;2023-06-24T00:23:03;2.40;;;2.30;;
6985;SDS011;3533;51.246;6.850;2023-06-24T00:25:31;2.40;;;2.30;;
6985;SDS011;3533;51.246;6.850;2023-06-24T00:27:57;2.17;;;2.07;;
6985;SDS011;3533;51.246;6.850;2023-06-24T00:30:23;2.80;;;2.70;;
6985;SDS011;3533;51.246;6.850;2023-06-24T00:32:48;2.90;;;2.70;;
6985;SDS011;3533;51.246;6.850;2023-06-24T00:35:14;2.10;;;2.00;;
6985;SDS011;3533;51.246;6.850;2023-06-24T00:37:40;2.30;;;2.20;;
6985;SDS011;3533;51.246;6.850;2023-06-24T00:40:08;2.30;;;2.20;;
6985;SDS011;3533;51.246;6.850;2023-06-24T00:42:35;2.50;;;2.40;;
6985;SDS011;3533;51.246;6.850;2023-06-24T00:45:02;2.17;;;2.07;;
6985;SDS011;3533;51.246;6.850;2023-06-24T00:47:30;2.70;;;2.60;;
6985;SDS011;3533;51.246;6.850;2023-06-24T00:49:56;2.20;;;2.10;;
6985;SDS011;3533;51.246;6.850;2023-06-24T00:52:22;2.50;;;2.40;;
6985;SDS011;3533;51.246;6.850;2023-06-24T00:54:48;2.40;;;2.30;;
6985;SDS011;3533;51.246;6.850;2023-06-24T00:57:14;2.33;;;2.23;;
6985;SDS011;3533;51.246;6.850;2023-06-24T00:59:42;2.30;;;2.20;;
6985;SDS011;3533;51.246;6.850;2023-06-24T01:02:10;2.10;;;2.00;;
6985;SDS011;3533;51.246;6.850;2023-06-24T01:04:37;2.20;;;2.10;;
6985;SDS011;3533;51.246;6.850;2023-06-24T01:07:02;2.00;;;1.90;;
6985;SDS011;3533;51.246;6.850;2023-06-24T01:09:30;2.37;;;2.27;;
6985;SDS011;3533;51.246;6.850;2023-06-24T01:11:56;3.00;;;2.90;;
6985;SDS011;3533;51.246;6.850;2023-06-24T01:14:21;2.20;;;2.10;;
6985;SDS011;3533;51.246;6.850;2023-06-24T01:16:59;2.47;;;2.37;;
6985;SDS011;3533;51.246;6.850;2023-06-24T01:22:19;2.50;;;2.40;;
6985;SDS011;3533;51.246;6.850;2023-06-24T01:28:00;2.63;;;2.53;;
6985;SDS011;3533;51.246;6.850;2023-06-24T01:30:54;2.47;;;2.37;;
6985;SDS011;3533;51.246;6.850;2023-06-24T01:33:35;2.30;;;2.20;;
6985;SDS011;3533;51.246;6.850;2023-06-24T01:36:13;2.50;;;2.40;;
6985;SDS011;3533;51.246;6.850;2023-06-24T01:38:43;2.47;;;2.37;;
6985;SDS011;3533;51.246;6.850;2023-06-24T01:41:18;2.10;;;2.00;;
6985;SDS011;3533;51.246;6.850;2023-06-24T01:43:47;2.47;;;2.37;;
6985;SDS011;3533;51.246;6.850;2023-06-24T01:46:14;2.27;;;2.17;;
6985;SDS011;3533;51.246;6.850;2023-06-24T01:48:46;2.63;;;2.53;;
6985;SDS011;3533;51.246;6.850;2023-06-24T01:51:13;2.27;;;2.17;;
6985;SDS011;3533;51.246;6.850;2023-06-24T01:53:44;2.40;;;2.30;;
6985;SDS011;3533;51.246;6.850;2023-06-24T01:56:15;2.27;;;2.17;;
6985;SDS011;3533;51.246;6.850;2023-06-24T01:58:42;2.00;;;1.90;;
6985;SDS011;3533;51.246;6.850;2023-06-24T02:01:09;2.10;;;2.00;;
6985;SDS011;3533;51.246;6.850;2023-06-24T02:03:37;2.30;;;2.20;;
6985;SDS011;3533;51.246;6.850;2023-06-24T02:06:03;2.20;;;2.10;;
6985;SDS011;3533;51.246;6.850;2023-06-24T02:08:31;2.20;;;2.10;;
6985;SDS011;3533;51.246;6.850;2023-06-24T02:10:59;2.23;;;2.03;;
6985;SDS011;3533;51.246;6.850;2023-06-24T02:13:26;2.20;;;2.10;;
6985;SDS011;3533;51.246;6.850;2023-06-24T02:15:56;2.10;;;2.00;;
6985;SDS011;3533;51.246;6.850;2023-06-24T02:18:23;2.30;;;2.20;;
6985;SDS011;3533;51.246;6.850;2023-06-24T02:20:52;2.23;;;2.13;;
6985;SDS011;3533;51.246;6.850;2023-06-24T02:23:19;2.50;;;2.30;;
6985;SDS011;3533;51.246;6.850;2023-06-24T02:25:46;2.27;;;2.17;;
6985;SDS011;3533;51.246;6.850;2023-06-24T02:28:12;2.57;;;2.37;;
6985;SDS011;3533;51.246;6.850;2023-06-24T02:30:39;2.27;;;2.17;;
6985;SDS011;3533;51.246;6.850;2023-06-24T02:33:06;2.23;;;2.00;;
6985;SDS011;3533;51.246;6.850;2023-06-24T02:35:32;2.53;;;2.40;;
6985;SDS011;3533;51.246;6.850;2023-06-24T02:37:57;2.40;;;2.30;;
6985;SDS011;3533;51.246;6.850;2023-06-24T02:40:23;2.10;;;2.00;;
6985;SDS011;3533;51.246;6.850;2023-06-24T02:42:49;2.57;;;2.47;;
6985;SDS011;3533;51.246;6.850;2023-06-24T02:45:15;2.20;;;2.10;;
6985;SDS011;3533;51.246;6.850;2023-06-24T02:47:41;2.23;;;2.13;;
6985;SDS011;3533;51.246;6.850;2023-06-24T02:50:12;2.43;;;2.33;;
6985;SDS011;3533;51.246;6.850;2023-06-24T02:52:38;2.40;;;2.20;;
6985;SDS011;3533;51.246;6.850;2023-06-24T02:55:04;2.00;;;1.90;;
6985;SDS011;3533;51.246;6.850;2023-06-24T02:57:30;2.10;;;2.00;;
6985;SDS011;3533;51.246;6.850;2023-06-24T02:59:57;2.00;;;1.90;;
6985;SDS011;3533;51.246;6.850;2023-06-24T03:02:23;2.53;;;2.43;;
6985;SDS011;3533;51.246;6.850;2023-06-24T03:04:50;2.00;;;1.90;;
6985;SDS011;3533;51.246;6.850;2023-06-24T03:07:17;2.00;;;1.90;;
6985;SDS011;3533;51.246;6.850;2023-06-24T03:09:46;2.40;;;2.30;;
6985;SDS011;3533;51.246;6.850;2023-06-24T03:12:12;2.53;;;2.43;;
6985;SDS011;3533;51.246;6.850;2023-06-24T03:14:38;2.37;;;2.27;;
6985;SDS011;3533;51.246;6.850;2023-06-24T03:17:03;2.30;;;2.20;;
6985;SDS011;3533;51.246;6.850;2023-06-24T03:19:29;2.33;;;2.23;;
6985;SDS011;3533;51.246;6.850;2023-06-24T03:21:55;2.10;;;2.00;;
6985;SDS011;3533;51.246;6.850;2023-06-24T03:24:20;2.37;;;2.27;;
6985;SDS011;3533;51.246;6.850;2023-06-24T03:26:46;2.37;;;2.27;;
6985;SDS011;3533;51.246;6.850;2023-06-24T03:29:11;2.40;;;2.30;;
6985;SDS011;3533;51.246;6.850;2023-06-24T03:31:37;2.30;;;2.20;;
6985;SDS011;3533;51.246;6.850;2023-06-24T03:34:09;2.40;;;2.30;;
6985;SDS011;3533;51.246;6.850;2023-06-24T03:36:35;2.30;;;2.20;;
6985;SDS011;3533;51.246;6.850;2023-06-24T03:39:03;2.10;;;2.00;;
6985;SDS011;3533;51.246;6.850;2023-06-24T03:41:29;4.23;;;2.60;;
6985;SDS011;3533;51.246;6.850;2023-06-24T03:43:55;2.40;;;2.30;;
6985;SDS011;3533;51.246;6.850;2023-06-24T03:46:20;2.20;;;2.10;;
6985;SDS011;3533;51.246;6.850;2023-06-24T03:48:46;2.10;;;2.00;;
6985;SDS011;3533;51.246;6.850;2023-06-24T03:51:12;10.03;;;2.70;;
6985;SDS011;3533;51.246;6.850;2023-06-24T03:53:38;2.20;;;2.10;;
6985;SDS011;3533;51.246;6.850;2023-06-24T03:56:04;2.23;;;2.13;;
6985;SDS011;3533;51.246;6.850;2023-06-24T03:58:29;2.50;;;2.40;;
6985;SDS011;3533;51.246;6.850;2023-06-24T04:00:55;2.60;;;2.50;;
6985;SDS011;3533;51.246;6.850;2023-06-24T04:03:23;2.20;;;2.10;;
6985;SDS011;3533;51.246;6.850;2023-06-24T04:05:50;2.50;;;2.30;;
6985;SDS011;3533;51.246;6.850;2023-06-24T04:08:18;2.20;;;2.10;;
6985;SDS011;3533;51.246;6.850;2023-06-24T04:10:43;2.10;;;2.00;;
6985;SDS011;3533;51.246;6.850;2023-06-24T04:13:09;2.33;;;2.13;;
6985;SDS011;3533;51.246;6.850;2023-06-24T04:15:35;2.50;;;2.40;;
6985;SDS011;3533;51.246;6.850;2023-06-24T04:18:00;2.40;;;2.30;;
6985;SDS011;3533;51.246;6.850;2023-06-24T04:20:26;2.20;;;2.10;;
6985;SDS011;3533;51.246;6.850;2023-06-24T04:22:51;2.40;;;2.30;;
6985;SDS011;3533;51.246;6.850;2023-06-24T04:25:17;2.60;;;2.50;;
6985;SDS011;3533;51.246;6.850;2023-06-24T04:27:42;2.60;;;2.50;;
6985;SDS011;3533;51.246;6.850;2023-06-24T04:30:08;2.50;;;2.40;;
6985;SDS011;3533;51.246;6.850;2023-06-24T04:32:34;2.30;;;2.20;;
6985;SDS011;3533;51.246;6.850;2023-06-24T04:34:59;2.40;;;2.30;;
6985;SDS011;3533;51.246;6.850;2023-06-24T04:37:26;2.30;;;2.20;;
6985;SDS011;3533;51.246;6.850;2023-06-24T04:39:51;2.60;;;2.50;;
6985;SDS011;3533;51.246;6.850;2023-06-24T04:42:17;2.20;;;2.10;;
6985;SDS011;3533;51.246;6.850;2023-06-24T04:44:42;2.57;;;2.47;;
6985;SDS011;3533;51.246;6.850;2023-06-24T04:47:08;2.07;;;1.97;;
6985;SDS011;3533;51.246;6.850;2023-06-24T04:49:33;2.40;;;2.30;;
6985;SDS011;3533;51.246;6.850;2023-06-24T04:52:00;2.50;;;2.40;;
6985;SDS011;3533;51.246;6.850;2023-06-24T04:54:28;2.30;;;2.20;;
6985;SDS011;3533;51.246;6.850;2023-06-24T04:56:53;2.20;;;2.10;;
6985;SDS011;3533;51.246;6.850;2023-06-24T04:59:22;2.63;;;2.43;;
6985;SDS011;3533;51.246;6.850;2023-06-24T05:01:48;2.10;;;2.00;;
6985;SDS011;3533;51.246;6.850;2023-06-24T05:04:16;2.07;;;1.97;;
6985;SDS011;3533;51.246;6.850;2023-06-24T05:06:41;2.60;;;2.40;;
6985;SDS011;3533;51.246;6.850;2023-06-24T05:09:07;2.33;;;2.23;;
6985;SDS011;3533;51.246;6.850;2023-06-24T05:11:33;2.70;;;2.53;;
6985;SDS011;3533;51.246;6.850;2023-06-24T05:13:59;2.63;;;2.53;;
6985;SDS011;3533;51.246;6.850;2023-06-24T05:16:25;2.20;;;2.10;;
6985;SDS011;3533;51.246;6.850;2023-06-24T05:18:51;2.00;;;1.90;;
6985;SDS011;3533;51.246;6.850;2023-06-24T05:21:16;2.37;;;2.27;;
6985;SDS011;3533;51.246;6.850;2023-06-24T05:23:42;2.30;;;2.20;;
6985;SDS011;3533;51.246;6.850;2023-06-24T05:26:07;2.30;;;2.20;;
6985;SDS011;3533;51.246;6.850;2023-06-24T05:28:33;2.37;;;2.27;;
6985;SDS011;3533;51.246;6.850;2023-06-24T05:30:59;2.30;;;2.20;;
6985;SDS011;3533;51.246;6.850;2023-06-24T05:33:24;2.10;;;2.00;;
6985;SDS011;3533;51.246;6.850;2023-06-24T05:35:50;2.10;;;2.00;;
6985;SDS011;3533;51.246;6.850;2023-06-24T05:38:16;2.20;;;2.10;;
6985;SDS011;3533;51.246;6.850;2023-06-24T05:40:42;2.27;;;2.17;;
6985;SDS011;3533;51.246;6.850;2023-06-24T05:43:07;2.20;;;2.10;;
6985;SDS011;3533;51.246;6.850;2023-06-24T05:45:33;2.03;;;1.93;;
6985;SDS011;3533;51.246;6.850;2023-06-24T05:47:58;2.23;;;2.13;;
6985;SDS011;3533;51.246;6.850;2023-06-24T05:50:24;2.27;;;2.17;;
6985;SDS011;3533;51.246;6.850;2023-06-24T05:52:49;2.40;;;2.30;;
6985;SDS011;3533;51.246;6.850;2023-06-24T05:55:15;2.47;;;2.37;;
6985;SDS011;3533;51.246;6.850;2023-06-24T05:57:40;2.50;;;2.30;;
6985;SDS011;3533;51.246;6.850;2023-06-24T06:00:06;2.10;;;2.00;;
6985;SDS011;3533;51.246;6.850;2023-06-24T06:02:32;2.33;;;2.23;;
6985;SDS011;3533;51.246;6.850;2023-06-24T06:04:58;2.67;;;2.57;;
6985;SDS011;3533;51.246;6.850;2023-06-24T06:07:23;2.47;;;2.37;;
6985;SDS011;3533;51.246;6.850;2023-06-24T06:09:49;2.63;;;2.53;;
6985;SDS011;3533;51.246;6.850;2023-06-24T06:12:14;2.23;;;2.13;;
6985;SDS011;3533;51.246;6.850;2023-06-24T06:14:40;2.43;;;2.33;;
6985;SDS011;3533;51.246;6.850;2023-06-24T06:17:06;2.30;;;2.20;;
6985;SDS011;3533;51.246;6.850;2023-06-24T06:19:31;2.10;;;2.00;;
6985;SDS011;3533;51.246;6.850;2023-06-24T06:21:57;2.40;;;2.30;;
6985;SDS011;3533;51.246;6.850;2023-06-24T06:24:22;2.70;;;2.50;;
6985;SDS011;3533;51.246;6.850;2023-06-24T06:26:48;2.90;;;2.80;;
6985;SDS011;3533;51.246;6.850;2023-06-24T06:29:13;2.20;;;2.10;;
6985;SDS011;3533;51.246;6.850;2023-06-24T06:31:39;2.20;;;2.10;;
6985;SDS011;3533;51.246;6.850;2023-06-24T06:34:04;2.57;;;2.47;;
6985;SDS011;3533;51.246;6.850;2023-06-24T06:36:30;2.30;;;2.20;;
6985;SDS011;3533;51.246;6.850;2023-06-24T06:38:56;2.57;;;2.47;;
6985;SDS011;3533;51.246;6.850;2023-06-24T06:41:21;2.40;;;2.30;;
6985;SDS011;3533;51.246;6.850;2023-06-24T06:43:53;2.33;;;2.23;;
6985;SDS011;3533;51.246;6.850;2023-06-24T06:46:19;2.10;;;2.00;;
6985;SDS011;3533;51.246;6.850;2023-06-24T06:48:45;2.20;;;2.10;;
6985;SDS011;3533;51.246;6.850;2023-06-24T06:51:10;2.57;;;2.47;;
6985;SDS011;3533;51.246;6.850;2023-06-24T06:53:37;2.73;;;2.63;;
6985;SDS011;3533;51.246;6.850;2023-06-24T06:56:02;2.40;;;2.30;;
6985;SDS011;3533;51.246;6.850;2023-06-24T06:58:28;1.93;;;1.83;;
6985;SDS011;3533;51.246;6.850;2023-06-24T07:00:53;2.20;;;2.10;;
6985;SDS011;3533;51.246;6.850;2023-06-24T07:03:19;2.07;;;1.97;;
6985;SDS011;3533;51.246;6.850;2023-06-24T07:05:45;2.20;;;2.10;;
6985;SDS011;3533;51.246;6.850;2023-06-24T07:08:11;2.20;;;2.10;;
6985;SDS011;3533;51.246;6.850;2023-06-24T07:10:36;2.00;;;1.90;;
6985;SDS011;3533;51.246;6.850;2023-06-24T07:13:02;2.60;;;2.50;;
6985;SDS011;3533;51.246;6.850;2023-06-24T07:15:28;2.30;;;2.20;;
6985;SDS011;3533;51.246;6.850;2023-06-24T07:17:53;2.00;;;1.90;;
6985;SDS011;3533;51.246;6.850;2023-06-24T07:20:20;2.13;;;2.03;;
6985;SDS011;3533;51.246;6.850;2023-06-24T07:22:46;2.00;;;1.90;;
6985;SDS011;3533;51.246;6.850;2023-06-24T07:25:12;2.43;;;2.33;;
6985;SDS011;3533;51.246;6.850;2023-06-24T07:27:38;2.30;;;2.17;;
6985;SDS011;3533;51.246;6.850;2023-06-24T07:30:04;2.10;;;2.00;;
6985;SDS011;3533;51.246;6.850;2023-06-24T07:32:30;2.10;;;2.00;;
6985;SDS011;3533;51.246;6.850;2023-06-24T07:34:55;1.93;;;1.83;;
6985;SDS011;3533;51.246;6.850;2023-06-24T07:37:21;2.50;;;2.40;;
6985;SDS011;3533;51.246;6.850;2023-06-24T07:39:47;2.03;;;1.93;;
6985;SDS011;3533;51.246;6.850;2023-06-24T07:42:13;2.30;;;2.20;;
6985;SDS011;3533;51.246;6.850;2023-06-24T07:44:43;2.50;;;2.40;;
6985;SDS011;3533;51.246;6.850;2023-06-24T07:47:13;1.90;;;1.80;;
6985;SDS011;3533;51.246;6.850;2023-06-24T07:49:39;2.57;;;2.37;;
6985;SDS011;3533;51.246;6.850;2023-06-24T07:52:05;1.83;;;1.73;;
6985;SDS011;3533;51.246;6.850;2023-06-24T07:54:31;2.13;;;2.03;;
6985;SDS011;3533;51.246;6.850;2023-06-24T07:56:56;2.07;;;1.97;;
6985;SDS011;3533;51.246;6.850;2023-06-24T07:59:22;1.90;;;1.80;;
6985;SDS011;3533;51.246;6.850;2023-06-24T08:01:48;2.13;;;2.03;;
6985;SDS011;3533;51.246;6.850;2023-06-24T08:04:14;2.70;;;2.60;;
6985;SDS011;3533;51.246;6.850;2023-06-24T08:06:40;2.33;;;2.23;;
6985;SDS011;3533;51.246;6.850;2023-06-24T08:09:06;2.30;;;2.20;;
6985;SDS011;3533;51.246;6.850;2023-06-24T08:11:31;2.30;;;2.20;;
6985;SDS011;3533;51.246;6.850;2023-06-24T08:13:57;2.00;;;1.90;;
6985;SDS011;3533;51.246;6.850;2023-06-24T08:16:23;2.27;;;2.17;;
6985;SDS011;3533;51.246;6.850;2023-06-24T08:18:48;2.03;;;1.93;;
6985;SDS011;3533;51.246;6.850;2023-06-24T08:21:14;2.27;;;2.17;;
6985;SDS011;3533;51.246;6.850;2023-06-24T08:23:39;2.30;;;2.20;;
6985;SDS011;3533;51.246;6.850;2023-06-24T08:26:05;2.07;;;1.97;;
6985;SDS011;3533;51.246;6.850;2023-06-24T08:28:32;2.20;;;2.10;;
6985;SDS011;3533;51.246;6.850;2023-06-24T08:30:58;2.23;;;2.13;;
6985;SDS011;3533;51.246;6.850;2023-06-24T08:33:23;2.17;;;2.07;;
6985;SDS011;3533;51.246;6.850;2023-06-24T08:35:49;2.13;;;2.03;;
6985;SDS011;3533;51.246;6.850;2023-06-24T08:38:14;5.00;;;2.20;;
6985;SDS011;3533;51.246;6.850;2023-06-24T08:40:40;2.23;;;2.13;;
6985;SDS011;3533;51.246;6.850;2023-06-24T08:43:06;2.10;;;2.00;;
6985;SDS011;3533;51.246;6.850;2023-06-24T08:45:31;2.10;;;2.00;;
6985;SDS011;3533;51.246;6.850;2023-06-24T08:47:57;2.00;;;1.90;;
6985;SDS011;3533;51.246;6.850;2023-06-24T08:50:26;2.23;;;2.13;;
6985;SDS011;3533;51.246;6.850;2023-06-24T08:52:56;2.20;;;2.10;;
6985;SDS011;3533;51.246;6.850;2023-06-24T08:55:23;2.20;;;2.10;;
6985;SDS011;3533;51.246;6.850;2023-06-24T08:57:53;2.20;;;2.10;;
6985;SDS011;3533;51.246;6.850;2023-06-24T09:00:18;2.23;;;2.13;;
6985;SDS011;3533;51.246;6.850;2023-06-24T09:02:44;2.37;;;2.27;;
6985;SDS011;3533;51.246;6.850;2023-06-24T09:05:10;2.17;;;2.07;;
6985;SDS011;3533;51.246;6.850;2023-06-24T09:07:36;1.83;;;1.73;;
6985;SDS011;3533;51.246;6.850;2023-06-24T09:10:02;2.23;;;2.13;;
6985;SDS011;3533;51.246;6.850;2023-06-24T09:12:28;2.00;;;1.90;;
6985;SDS011;3533;51.246;6.850;2023-06-24T09:14:58;2.17;;;2.07;;
6985;SDS011;3533;51.246;6.850;2023-06-24T09:17:23;2.20;;;2.10;;
6985;SDS011;3533;51.246;6.850;2023-06-24T09:19:49;2.23;;;2.13;;
6985;SDS011;3533;51.246;6.850;2023-06-24T09:22:15;2.27;;;2.17;;
6985;SDS011;3533;51.246;6.850;2023-06-24T09:24:43;1.97;;;1.87;;
6985;SDS011;3533;51.246;6.850;2023-06-24T09:27:13;2.23;;;2.03;;
6985;SDS011;3533;51.246;6.850;2023-06-24T09:29:39;2.07;;;1.97;;
6985;SDS011;3533;51.246;6.850;2023-06-24T09:32:06;2.00;;;1.90;;
6985;SDS011;3533;51.246;6.850;2023-06-24T09:34:33;2.03;;;1.93;;
6985;SDS011;3533;51.246;6.850;2023-06-24T09:36:59;1.80;;;1.70;;
6985;SDS011;3533;51.246;6.850;2023-06-24T09:39:26;2.53;;;2.43;;
6985;SDS011;3533;51.246;6.850;2023-06-24T09:41:59;2.23;;;2.13;;
6985;SDS011;3533;51.246;6.850;2023-06-24T09:44:26;2.20;;;2.10;;
6985;SDS011;3533;51.246;6.850;2023-06-24T09:46:53;2.17;;;2.07;;
6985;SDS011;3533;51.246;6.850;2023-06-24T09:49:19;2.43;;;2.33;;
6985;SDS011;3533;51.246;6.850;2023-06-24T09:51:45;2.17;;;2.07;;
6985;SDS011;3533;51.246;6.850;2023-06-24T09:54:12;2.10;;;2.00;;
6985;SDS011;3533;51.246;6.850;2023-06-24T09:56:40;2.20;;;2.10;;
6985;SDS011;3533;51.246;6.850;2023-06-24T09:59:09;2.20;;;2.10;;
6985;SDS011;3533;51.246;6.850;2023-06-24T10:01:38;2.43;;;2.33;;
6985;SDS011;3533;51.246;6.850;2023-06-24T10:04:06;1.93;;;1.83;;
6985;SDS011;3533;51.246;6.850;2023-06-24T10:06:32;2.33;;;2.23;;
6985;SDS011;3533;51.246;6.850;2023-06-24T10:08:59;2.03;;;1.93;;
6985;SDS011;3533;51.246;6.850;2023-06-24T10:11:26;2.30;;;2.20;;
6985;SDS011;3533;51.246;6.850;2023-06-24T10:13:52;2.27;;;2.17;;
6985;SDS011;3533;51.246;6.850;2023-06-24T10:16:18;2.07;;;1.97;;
6985;SDS011;3533;51.246;6.850;2023-06-24T10:18:44;2.17;;;2.07;;
6985;SDS011;3533;51.246;6.850;2023-06-24T10:21:11;1.97;;;1.87;;
6985;SDS011;3533;51.246;6.850;2023-06-24T10:23:41;2.20;;;2.10;;
6985;SDS011;3533;51.246;6.850;2023-06-24T10:26:24;2.20;;;2.10;;
6985;SDS011;3533;51.246;6.850;2023-06-24T10:34:26;2.10;;;2.00;;
6985;SDS011;3533;51.246;6.850;2023-06-24T10:39:46;2.43;;;2.33;;
6985;SDS011;3533;51.246;6.850;2023-06-24T10:44:54;2.10;;;2.00;;
6985;SDS011;3533;51.246;6.850;2023-06-24T10:47:21;1.90;;;1.80;;
6985;SDS011;3533;51.246;6.850;2023-06-24T10:49:48;2.40;;;2.30;;
6985;SDS011;3533;51.246;6.850;2023-06-24T10:52:14;2.50;;;2.40;;
6985;SDS011;3533;51.246;6.850;2023-06-24T10:54:42;2.07;;;1.97;;
6985;SDS011;3533;51.246;6.850;2023-06-24T10:57:10;2.13;;;2.03;;
6985;SDS011;3533;51.246;6.850;2023-06-24T10:59:47;2.83;;;2.63;;
6985;SDS011;3533;51.246;6.850;2023-06-24T11:02:14;2.20;;;2.10;;
6985;SDS011;3533;51.246;6.850;2023-06-24T11:04:48;2.03;;;1.93;;
6985;SDS011;3533;51.246;6.850;2023-06-24T11:07:17;2.43;;;2.33;;
6985;SDS011;3533;51.246;6.850;2023-06-24T11:09:48;2.50;;;2.40;;
6985;SDS011;3533;51.246;6.850;2023-06-24T11:12:15;2.20;;;2.10;;
6985;SDS011;3533;51.246;6.850;2023-06-24T11:14:40;2.30;;;2.20;;
6985;SDS011;3533;51.246;6.850;2023-06-24T11:17:06;2.40;;;2.30;;
6985;SDS011;3533;51.246;6.850;2023-06-24T11:19:32;2.17;;;2.07;;
6985;SDS011;3533;51.246;6.850;2023-06-24T11:22:00;2.00;;;1.80;;
6985;SDS011;3533;51.246;6.850;2023-06-24T11:24:27;2.17;;;2.07;;
6985;SDS011;3533;51.246;6.850;2023-06-24T11:26:53;3.90;;;2.00;;
6985;SDS011;3533;51.246;6.850;2023-06-24T11:29:18;2.00;;;1.90;;
6985;SDS011;3533;51.246;6.850;2023-06-24T11:31:44;2.10;;;2.00;;
6985;SDS011;3533;51.246;6.850;2023-06-24T11:34:10;2.10;;;2.00;;
6985;SDS011;3533;51.246;6.850;2023-06-24T11:36:36;2.30;;;2.20;;
6985;SDS011;3533;51.246;6.850;2023-06-24T11:39:01;2.30;;;2.20;;
6985;SDS011;3533;51.246;6.850;2023-06-24T11:41:28;2.20;;;2.10;;
6985;SDS011;3533;51.246;6.850;2023-06-24T11:43:53;1.97;;;1.87;;
6985;SDS011;3533;51.246;6.850;2023-06-24T11:46:28;1.90;;;1.80;;
6985;SDS011;3533;51.246;6.850;2023-06-24T11:49:07;2.40;;;2.30;;
6985;SDS011;3533;51.246;6.850;2023-06-24T11:51:36;1.90;;;1.80;;
6985;SDS011;3533;51.246;6.850;2023-06-24T11:54:03;1.70;;;1.60;;
6985;SDS011;3533;51.246;6.850;2023-06-24T11:56:40;1.83;;;1.73;;
6985;SDS011;3533;51.246;6.850;2023-06-24T11:59:15;1.70;;;1.60;;
6985;SDS011;3533;51.246;6.850;2023-06-24T12:01:44;1.80;;;1.70;;
6985;SDS011;3533;51.246;6.850;2023-06-24T12:04:20;1.80;;;1.70;;
6985;SDS011;3533;51.246;6.850;2023-06-24T12:06:47;2.10;;;2.00;;
6985;SDS011;3533;51.246;6.850;2023-06-24T12:09:12;2.10;;;2.00;;
6985;SDS011;3533;51.246;6.850;2023-06-24T12:11:38;2.00;;;1.90;;
6985;SDS011;3533;51.246;6.850;2023-06-24T12:14:04;1.90;;;1.80;;
6985;SDS011;3533;51.246;6.850;2023-06-24T12:16:30;1.90;;;1.80;;
6985;SDS011;3533;51.246;6.850;2023-06-24T12:18:56;1.90;;;1.80;;
6985;SDS011;3533;51.246;6.850;2023-06-24T12:21:21;1.80;;;1.70;;
6985;SDS011;3533;51.246;6.850;2023-06-24T12:23:47;1.90;;;1.80;;
6985;SDS011;3533;51.246;6.850;2023-06-24T12:26:13;1.80;;;1.70;;
6985;SDS011;3533;51.246;6.850;2023-06-24T12:28:38;1.70;;;1.60;;
6985;SDS011;3533;51.246;6.850;2023-06-24T12:31:04;1.60;;;1.50;;
6985;SDS011;3533;51.246;6.850;2023-06-24T12:33:30;1.77;;;1.67;;
6985;SDS011;3533;51.246;6.850;2023-06-24T12:35:56;1.80;;;1.70;;
6985;SDS011;3533;51.246;6.850;2023-06-24T12:38:21;1.63;;;1.53;;
6985;SDS011;3533;51.246;6.850;2023-06-24T12:40:47;1.80;;;1.70;;
6985;SDS011;3533;51.246;6.850;2023-06-24T12:43:13;1.80;;;1.70;;
6985;SDS011;3533;51.246;6.850;2023-06-24T12:45:39;1.60;;;1.50;;
6985;SDS011;3533;51.246;6.850;2023-06-24T12:48:08;1.60;;;1.50;;
6985;SDS011;3533;51.246;6.850;2023-06-24T12:50:34;1.83;;;1.73;;
6985;SDS011;3533;51.246;6.850;2023-06-24T12:53:01;1.70;;;1.60;;
6985;SDS011;3533;51.246;6.850;2023-06-24T12:55:28;1.80;;;1.70;;
6985;SDS011;3533;51.246;6.850;2023-06-24T12:57:53;1.90;;;1.80;;
6985;SDS011;3533;51.246;6.850;2023-06-24T13:00:19;1.70;;;1.60;;
6985;SDS011;3533;51.246;6.850;2023-06-24T13:02:46;1.80;;;1.70;;
6985;SDS011;3533;51.246;6.850;2023-06-24T13:05:13;1.70;;;1.60;;
6985;SDS011;3533;51.246;6.850;2023-06-24T13:07:38;1.70;;;1.60;;
6985;SDS011;3533;51.246;6.850;2023-06-24T13:10:04;1.80;;;1.70;;
6985;SDS011;3533;51.246;6.850;2023-06-24T13:12:33;1.60;;;1.50;;
6985;SDS011;3533;51.246;6.850;2023-06-24T13:14:59;1.70;;;1.60;;
6985;SDS011;3533;51.246;6.850;2023-06-24T13:17:25;1.80;;;1.70;;
6985;SDS011;3533;51.246;6.850;2023-06-24T13:19:51;1.50;;;1.40;;
6985;SDS011;3533;51.246;6.850;2023-06-24T13:22:17;1.90;;;1.80;;
6985;SDS011;3533;51.246;6.850;2023-06-24T13:24:43;1.60;;;1.50;;
6985;SDS011;3533;51.246;6.850;2023-06-24T13:27:09;1.40;;;1.30;;
6985;SDS011;3533;51.246;6.850;2023-06-24T13:29:35;1.93;;;1.83;;
6985;SDS011;3533;51.246;6.850;2023-06-24T13:32:00;1.63;;;1.53;;
6985;SDS011;3533;51.246;6.850;2023-06-24T13:34:26;1.70;;;1.60;;
6985;SDS011;3533;51.246;6.850;2023-06-24T13:36:51;3.57;;;1.70;;
6985;SDS011;3533;51.246;6.850;2023-06-24T13:39:17;1.63;;;1.53;;
6985;SDS011;3533;51.246;6.850;2023-06-24T13:41:46;1.60;;;1.50;;
6985;SDS011;3533;51.246;6.850;2023-06-24T13:44:12;1.80;;;1.70;;
6985;SDS011;3533;51.246;6.850;2023-06-24T13:46:37;1.70;;;1.60;;
6985;SDS011;3533;51.246;6.850;2023-06-24T13:49:03;1.73;;;1.63;;
6985;SDS011;3533;51.246;6.850;2023-06-24T13:51:28;1.70;;;1.60;;
6985;SDS011;3533;51.246;6.850;2023-06-24T13:53:54;1.70;;;1.60;;
6985;SDS011;3533;51.246;6.850;2023-06-24T13:56:20;1.30;;;1.20;;
6985;SDS011;3533;51.246;6.850;2023-06-24T13:58:47;1.60;;;1.50;;
6985;SDS011;3533;51.246;6.850;2023-06-24T14:01:14;1.40;;;1.30;;
6985;SDS011;3533;51.246;6.850;2023-06-24T14:03:40;1.60;;;1.50;;
6985;SDS011;3533;51.246;6.850;2023-06-24T14:06:06;1.63;;;1.53;;
6985;SDS011;3533;51.246;6.850;2023-06-24T14:08:32;1.47;;;1.37;;
6985;SDS011;3533;51.246;6.850;2023-06-24T14:10:58;1.57;;;1.47;;
6985;SDS011;3533;51.246;6.850;2023-06-24T14:13:25;1.70;;;1.60;;
6985;SDS011;3533;51.246;6.850;2023-06-24T14:15:52;1.70;;;1.60;;
6985;SDS011;3533;51.246;6.850;2023-06-24T14:18:18;1.50;;;1.40;;
6985;SDS011;3533;51.246;6.850;2023-06-24T14:20:44;1.60;;;1.50;;
6985;SDS011;3533;51.246;6.850;2023-06-24T14:23:10;1.90;;;1.80;;
6985;SDS011;3533;51.246;6.850;2023-06-24T14:25:35;1.57;;;1.47;;
6985;SDS011;3533;51.246;6.850;2023-06-24T14:28:02;1.57;;;1.47;;
6985;SDS011;3533;51.246;6.850;2023-06-24T14:30:29;1.50;;;1.40;;
6985;SDS011;3533;51.246;6.850;2023-06-24T14:32:54;1.50;;;1.40;;
6985;SDS011;3533;51.246;6.850;2023-06-24T14:35:20;1.50;;;1.40;;
6985;SDS011;3533;51.246;6.850;2023-06-24T14:37:45;1.50;;;1.40;;
6985;SDS011;3533;51.246;6.850;2023-06-24T14:40:11;1.73;;;1.63;;
6985;SDS011;3533;51.246;6.850;2023-06-24T14:42:36;1.60;;;1.50;;
6985;SDS011;3533;51.246;6.850;2023-06-24T14:45:02;1.63;;;1.50;;
6985;SDS011;3533;51.246;6.850;2023-06-24T14:47:28;1.80;;;1.70;;
6985;SDS011;3533;51.246;6.850;2023-06-24T14:49:53;1.60;;;1.50;;
6985;SDS011;3533;51.246;6.850;2023-06-24T14:52:19;1.83;;;1.73;;
6985;SDS011;3533;51.246;6.850;2023-06-24T14:54:46;4.03;;;1.40;;
6985;SDS011;3533;51.246;6.850;2023-06-24T14:57:12;1.50;;;1.40;;
6985;SDS011;3533;51.246;6.850;2023-06-24T14:59:37;1.80;;;1.70;;
6985;SDS011;3533;51.246;6.850;2023-06-24T15:02:03;1.40;;;1.30;;
6985;SDS011;3533;51.246;6.850;2023-06-24T15:04:29;1.50;;;1.40;;
6985;SDS011;3533;51.246;6.850;2023-06-24T15:06:54;1.50;;;1.40;;
6985;SDS011;3533;51.246;6.850;2023-06-24T15:09:21;1.60;;;1.50;;
6985;SDS011;3533;51.246;6.850;2023-06-24T15:11:48;1.70;;;1.60;;
6985;SDS011;3533;51.246;6.850;2023-06-24T15:14:13;1.47;;;1.37;;
6985;SDS011;3533;51.246;6.850;2023-06-24T15:16:39;1.70;;;1.60;;
6985;SDS011;3533;51.246;6.850;2023-06-24T15:19:04;1.57;;;1.47;;
6985;SDS011;3533;51.246;6.850;2023-06-24T15:21:30;1.47;;;1.37;;
6985;SDS011;3533;51.246;6.850;2023-06-24T15:23:55;1.50;;;1.40;;
6985;SDS011;3533;51.246;6.850;2023-06-24T15:26:21;1.70;;;1.60;;
6985;SDS011;3533;51.246;6.850;2023-06-24T15:28:46;1.40;;;1.30;;